Time;durP1;ratioP1;P1;durP2;ratioP2;P2;SDS_P1;SDS_P2;PMS_P1;PMS_P2;Temp;Humidity;BMP_temperature;BMP_pressure;BME280_temperature;BME280_humidity;BME280_pressure;Samples;Min_cycle;Max_cycle;Signal;HPM_P1;HPM_P2
2021/11/30 00:00:55;;;;;;;3.60;2.17;;;-13.40;99.90;;;;;;5115858;28;20023;-63
2021/11/30 00:03:21;;;;;;;2.15;1.95;;;-13.40;99.90;;;;;;5115243;28;20184;-63
2021/11/30 00:05:48;;;;;;;3.92;1.95;;;-13.40;99.90;;;;;;5115327;28;20028;-63
2021/11/30 00:08:16;;;;;;;7.30;2.55;;;-13.30;99.90;;;;;;5115237;28;20050;-63
2021/11/30 00:10:46;;;;;;;3.58;2.10;;;-13.20;99.90;;;;;;5115480;28;20027;-63
2021/11/30 00:13:17;;;;;;;5.03;2.00;;;-13.20;99.90;;;;;;5115233;27;20123;-63
2021/11/30 00:15:44;;;;;;;2.22;2.00;;;-13.10;99.90;;;;;;5115167;28;20034;-63
2021/11/30 00:18:10;;;;;;;4.88;2.13;;;-13.20;99.90;;;;;;5114963;28;20051;-63
2021/11/30 00:20:40;;;;;;;2.15;1.98;;;-13.20;99.90;;;;;;5115452;28;20019;-63
2021/11/30 00:23:06;;;;;;;2.63;1.95;;;-13.20;99.90;;;;;;5114739;28;20497;-63
2021/11/30 00:25:33;;;;;;;4.35;2.00;;;-13.20;99.90;;;;;;5114895;28;20024;-63
2021/11/30 00:27:59;;;;;;;3.65;1.98;;;-13.10;99.90;;;;;;5114876;28;20024;-63
2021/11/30 00:30:25;;;;;;;3.50;2.10;;;-13.10;99.90;;;;;;5114838;28;20032;-63
2021/11/30 00:32:52;;;;;;;3.28;2.70;;;-13.00;99.90;;;;;;5114734;28;20138;-63
2021/11/30 00:35:19;;;;;;;5.43;2.53;;;-13.00;99.90;;;;;;5114705;28;20027;-63
2021/11/30 00:37:44;;;;;;;3.35;2.13;;;-13.00;99.90;;;;;;5102122;28;20032;-63
2021/11/30 00:40:11;;;;;;;2.28;2.08;;;-13.00;99.90;;;;;;5094257;28;20425;-63
2021/11/30 00:42:38;;;;;;;2.70;2.10;;;-13.00;99.90;;;;;;5105229;28;20024;-64
2021/11/30 00:45:07;;;;;;;2.92;2.05;;;-13.00;99.90;;;;;;5114701;28;20035;-63
2021/11/30 00:47:34;;;;;;;3.40;2.40;;;-13.10;99.90;;;;;;5114491;28;20080;-63
2021/11/30 00:50:03;;;;;;;4.28;2.20;;;-13.10;99.90;;;;;;5114331;28;20027;-63
2021/11/30 00:52:29;;;;;;;3.20;2.30;;;-13.00;99.90;;;;;;5114193;28;20012;-64
2021/11/30 00:54:54;;;;;;;3.35;2.33;;;-13.00;99.90;;;;;;5114481;28;20046;-64
2021/11/30 00:57:21;;;;;;;3.03;2.33;;;-13.00;99.90;;;;;;5114187;28;20019;-64
2021/11/30 00:59:48;;;;;;;3.92;2.45;;;-12.90;99.90;;;;;;5114243;28;20110;-63
2021/11/30 01:02:14;;;;;;;3.05;2.28;;;-12.90;99.90;;;;;;5114046;28;20023;-64
2021/11/30 01:04:41;;;;;;;4.88;2.10;;;-12.80;99.90;;;;;;5114046;28;20625;-64
2021/11/30 01:07:10;;;;;;;3.70;2.45;;;-12.80;99.90;;;;;;5114467;28;20026;-64
2021/11/30 01:09:35;;;;;;;3.15;2.25;;;-12.70;99.90;;;;;;5114248;28;20475;-64
2021/11/30 01:12:01;;;;;;;4.10;2.53;;;-12.80;99.90;;;;;;5114565;28;20107;-64
2021/11/30 01:14:27;;;;;;;2.88;2.10;;;-12.80;99.90;;;;;;5113725;28;20027;-64
2021/11/30 01:16:53;;;;;;;2.38;2.17;;;-12.80;99.90;;;;;;5114112;28;20027;-64
2021/11/30 01:19:19;;;;;;;3.83;2.35;;;-12.80;99.90;;;;;;5113775;28;20027;-64
2021/11/30 01:21:44;;;;;;;5.95;2.08;;;-12.80;99.90;;;;;;5114346;28;20016;-63
2021/11/30 01:24:10;;;;;;;2.95;2.15;;;-12.80;99.90;;;;;;5113910;28;20377;-63
2021/11/30 01:26:36;;;;;;;2.63;2.00;;;-12.80;99.90;;;;;;5099428;28;20023;-63
2021/11/30 01:29:04;;;;;;;1.95;1.80;;;-12.80;99.90;;;;;;5114049;28;20053;-64
2021/11/30 01:31:30;;;;;;;2.28;2.08;;;-12.80;99.90;;;;;;5110436;28;20061;-64
2021/11/30 01:33:56;;;;;;;2.22;2.03;;;-12.80;99.90;;;;;;5093491;28;20024;-64
2021/11/30 01:36:21;;;;;;;2.90;2.20;;;-12.80;99.90;;;;;;5108664;28;20491;-64
2021/11/30 01:38:47;;;;;;;2.08;1.80;;;-12.80;99.90;;;;;;5113608;28;20499;-63
2021/11/30 01:41:14;;;;;;;3.92;2.22;;;-12.80;99.90;;;;;;5113889;28;20023;-63
2021/11/30 01:43:44;;;;;;;3.08;2.08;;;-12.80;99.90;;;;;;5113076;28;20035;-64
2021/11/30 01:46:24;;;;;;;4.28;2.42;;;-12.80;99.90;;;;;;5113422;28;20027;-64
2021/11/30 01:51:51;;;;;;;2.03;1.70;;;-12.90;99.90;;;;;;5090525;28;19911;-64
2021/11/30 01:54:17;;;;;;;3.15;2.13;;;-13.00;99.90;;;;;;5097272;28;20024;-64
2021/11/30 01:56:42;;;;;;;2.45;1.73;;;-13.00;99.90;;;;;;5113661;28;20403;-64
2021/11/30 01:59:08;;;;;;;1.80;1.70;;;-13.00;99.90;;;;;;5111715;28;20043;-63
2021/11/30 02:01:34;;;;;;;1.83;1.70;;;-12.90;99.90;;;;;;5113243;28;20414;-63
2021/11/30 02:04:00;;;;;;;2.13;1.85;;;-13.00;99.90;;;;;;5112822;28;20475;-63
2021/11/30 02:06:26;;;;;;;2.92;1.80;;;-13.10;99.90;;;;;;5112891;28;20098;-63
2021/11/30 02:08:52;;;;;;;2.10;1.80;;;-13.00;99.90;;;;;;5113332;28;20115;-63
2021/11/30 02:11:18;;;;;;;2.05;1.75;;;-12.90;99.90;;;;;;5112780;28;20466;-63
2021/11/30 02:13:44;;;;;;;1.88;1.77;;;-12.90;99.90;;;;;;5113146;28;20098;-63
2021/11/30 02:16:10;;;;;;;1.90;1.73;;;-12.80;99.90;;;;;;5109987;28;20388;-63
2021/11/30 02:18:44;;;;;;;2.78;2.08;;;-12.80;99.90;;;;;;5101597;28;20023;-63
2021/11/30 02:21:11;;;;;;;2.20;1.98;;;-12.80;99.90;;;;;;5112737;28;20437;-63
2021/11/30 02:55:13;;;;;;;2.05;1.85;;;-12.00;99.90;;;;;;5100459;28;20035;-64
2021/11/30 02:57:39;;;;;;;1.75;1.65;;;-12.00;99.90;;;;;;5109768;28;20379;-64
2021/11/30 03:00:07;;;;;;;3.55;2.00;;;-11.90;99.90;;;;;;5111288;28;20059;-64
2021/11/30 03:02:37;;;;;;;5.10;1.95;;;-11.80;99.90;;;;;;5111714;28;20027;-64
2021/11/30 03:05:04;;;;;;;2.28;1.95;;;-11.80;99.90;;;;;;5112035;28;20032;-64
2021/11/30 03:07:37;;;;;;;1.77;1.67;;;-11.80;99.90;;;;;;5111818;28;20023;-64
2021/11/30 03:10:12;;;;;;;1.77;1.67;;;-11.70;99.90;;;;;;5110617;28;20024;-64
2021/11/30 03:12:39;;;;;;;2.20;2.00;;;-11.70;99.90;;;;;;5111865;28;20413;-64
2021/11/30 03:15:11;;;;;;;2.25;1.80;;;-11.70;99.90;;;;;;5111903;28;20085;-64
2021/11/30 03:17:37;;;;;;;2.35;1.88;;;-11.70;99.90;;;;;;5111787;28;20475;-63
2021/11/30 03:20:04;;;;;;;5.00;1.70;;;-11.60;99.90;;;;;;5112063;28;20387;-64
2021/11/30 03:22:30;;;;;;;1.80;1.70;;;-11.50;99.90;;;;;;5111809;28;20034;-63
2021/11/30 03:24:56;;;;;;;2.05;1.83;;;-11.50;99.90;;;;;;5111912;28;20118;-64
2021/11/30 03:27:22;;;;;;;2.00;1.85;;;-11.40;99.90;;;;;;5111816;28;20098;-63
2021/11/30 03:29:48;;;;;;;1.92;1.70;;;-11.40;99.90;;;;;;5111575;28;20019;-63
2021/11/30 03:34:59;;;;;;;2.97;2.10;;;-11.40;99.90;;;;;;5111887;28;20109;-64
2021/11/30 03:37:25;;;;;;;2.78;1.90;;;-11.40;99.90;;;;;;5111633;28;20038;-64
2021/11/30 03:39:52;;;;;;;1.98;1.73;;;-11.40;99.90;;;;;;5111564;28;20107;-64
2021/11/30 03:42:18;;;;;;;1.77;1.67;;;-11.30;99.90;;;;;;5112038;28;20106;-64
2021/11/30 03:44:44;;;;;;;3.83;1.80;;;-11.30;99.90;;;;;;5111599;28;20043;-63
2021/11/30 03:47:10;;;;;;;2.00;1.70;;;-11.30;99.90;;;;;;5111519;28;20375;-64
2021/11/30 03:49:39;;;;;;;3.28;2.08;;;-11.20;99.90;;;;;;5111738;28;20095;-64
2021/11/30 03:52:05;;;;;;;3.53;2.00;;;-11.10;99.90;;;;;;5111885;28;20024;-65
2021/11/30 03:54:31;;;;;;;4.00;1.90;;;-11.00;99.90;;;;;;5111439;28;20090;-65
2021/11/30 03:56:56;;;;;;;2.95;2.00;;;-11.00;99.90;;;;;;5111744;28;20031;-65
2021/11/30 03:59:22;;;;;;;2.67;1.80;;;-11.00;99.90;;;;;;5111373;28;20047;-65
2021/11/30 04:01:48;;;;;;;1.92;1.70;;;-11.00;99.90;;;;;;5111562;28;20023;-63
2021/11/30 04:04:23;;;;;;;3.47;2.10;;;-11.00;99.90;;;;;;5106714;28;20506;-64
2021/11/30 04:06:51;;;;;;;2.65;1.90;;;-11.00;99.90;;;;;;5102101;28;20028;-64
2021/11/30 04:09:17;;;;;;;2.75;1.65;;;-11.00;99.90;;;;;;5111480;28;20141;-64
2021/11/30 04:11:43;;;;;;;2.78;1.88;;;-10.90;99.90;;;;;;5113598;28;20022;-64
2021/11/30 04:14:09;;;;;;;1.80;1.70;;;-10.90;99.90;;;;;;5115422;28;20024;-64
2021/11/30 04:16:35;;;;;;;3.45;1.70;;;-10.90;99.90;;;;;;5115197;28;20027;-64
2021/11/30 04:19:01;;;;;;;2.47;2.28;;;-10.90;99.90;;;;;;5115176;28;20027;-64
2021/11/30 04:21:27;;;;;;;3.10;1.80;;;-10.90;99.90;;;;;;5114970;28;20016;-64
2021/11/30 04:23:54;;;;;;;1.95;1.77;;;-10.90;99.90;;;;;;5115034;28;20111;-64
2021/11/30 04:26:20;;;;;;;2.10;1.75;;;-10.90;99.90;;;;;;5115004;28;20028;-64
2021/11/30 04:28:46;;;;;;;5.53;2.00;;;-10.90;99.90;;;;;;5114955;28;20073;-64
2021/11/30 04:31:13;;;;;;;2.25;1.92;;;-10.90;99.90;;;;;;5114931;28;20030;-64
2021/11/30 04:33:39;;;;;;;2.42;1.73;;;-10.90;99.90;;;;;;5114677;28;20502;-64
2021/11/30 04:36:08;;;;;;;2.67;1.73;;;-10.80;99.90;;;;;;5114770;28;20042;-63
2021/11/30 04:38:35;;;;;;;2.15;1.88;;;-10.80;99.90;;;;;;5113707;28;20020;-63
2021/11/30 04:41:01;;;;;;;2.25;1.98;;;-10.80;99.90;;;;;;5115082;28;20035;-63
2021/11/30 04:43:34;;;;;;;3.13;2.00;;;-10.80;99.90;;;;;;5096141;28;20436;-63
2021/11/30 04:46:02;;;;;;;6.90;1.90;;;-10.80;99.90;;;;;;5114768;28;20119;-63
2021/11/30 04:48:29;;;;;;;1.63;1.45;;;-10.80;99.90;;;;;;5114233;28;20027;-63
2021/11/30 04:50:57;;;;;;;4.07;1.92;;;-10.70;99.90;;;;;;5114533;27;20620;-63
2021/11/30 04:53:25;;;;;;;2.25;1.80;;;-10.70;99.90;;;;;;5114642;28;20420;-64
2021/11/30 04:55:52;;;;;;;3.28;1.90;;;-10.70;99.90;;;;;;5114135;28;20383;-63
2021/11/30 04:58:19;;;;;;;1.80;1.60;;;-10.60;99.90;;;;;;5114181;28;20047;-63
2021/11/30 05:00:45;;;;;;;2.00;1.80;;;-10.60;99.90;;;;;;5114508;28;20027;-63
2021/11/30 05:03:11;;;;;;;2.67;1.90;;;-10.50;99.90;;;;;;5114330;28;20124;-63
2021/11/30 05:05:37;;;;;;;2.20;1.95;;;-10.40;99.90;;;;;;5113908;27;20499;-63
2021/11/30 05:08:03;;;;;;;2.38;1.85;;;-10.50;99.90;;;;;;5114230;28;20105;-63
2021/11/30 05:10:29;;;;;;;2.35;1.90;;;-10.50;99.90;;;;;;5113979;28;20521;-63
2021/11/30 05:12:55;;;;;;;2.35;1.85;;;-10.50;99.90;;;;;;5114144;28;20032;-63
2021/11/30 05:15:21;;;;;;;2.22;1.98;;;-10.40;99.90;;;;;;5113957;28;20026;-63
2021/11/30 05:17:47;;;;;;;2.47;2.00;;;-10.40;99.90;;;;;;5114195;28;20016;-63
2021/11/30 05:20:13;;;;;;;2.63;1.83;;;-10.30;99.90;;;;;;5114023;27;20107;-63
2021/11/30 05:22:39;;;;;;;3.47;1.98;;;-10.30;99.90;;;;;;5112783;28;20020;-63
2021/11/30 05:25:07;;;;;;;4.32;2.30;;;-10.30;99.90;;;;;;5113946;28;20035;-62
2021/11/30 05:27:39;;;;;;;2.63;1.90;;;-10.20;99.90;;;;;;5113673;28;20020;-63
2021/11/30 05:30:14;;;;;;;4.65;2.30;;;-10.20;99.90;;;;;;5114088;28;20069;-63
2021/11/30 05:32:42;;;;;;;3.70;1.90;;;-10.10;99.90;;;;;;5113427;28;20024;-63
2021/11/30 05:35:08;;;;;;;2.33;1.92;;;-10.10;99.90;;;;;;5113549;28;20023;-65
2021/11/30 05:37:34;;;;;;;3.97;1.92;;;-10.00;99.90;;;;;;5113963;28;20024;-62
2021/11/30 05:40:00;;;;;;;3.88;1.63;;;-10.00;99.90;;;;;;5112840;28;20398;-63
2021/11/30 05:42:26;;;;;;;3.78;1.92;;;-9.20;99.90;;;;;;5113407;28;20572;-63
2021/11/30 05:44:51;;;;;;;3.63;2.30;;;-8.70;99.90;;;;;;5109049;28;20036;-63
2021/11/30 05:47:18;;;;;;;4.13;2.00;;;-8.90;99.90;;;;;;5113184;28;20060;-64
2021/11/30 05:49:43;;;;;;;2.28;2.08;;;-8.60;99.90;;;;;;5113125;28;20031;-63
2021/11/30 05:52:09;;;;;;;2.67;1.60;;;-7.30;99.90;;;;;;5111681;28;20015;-63
2021/11/30 05:54:36;;;;;;;2.33;1.90;;;-6.80;99.90;;;;;;5095483;28;20021;-63
2021/11/30 05:57:06;;;;;;;3.08;2.13;;;-6.80;99.90;;;;;;5095254;28;20115;-61
2021/11/30 05:59:36;;;;;;;2.92;2.15;;;-6.80;99.90;;;;;;5099276;28;20059;-61
2021/11/30 06:02:02;;;;;;;;;;;-6.90;99.90;;;;;;5095357;28;20100;-61
2021/11/30 06:04:28;;;;;;;2.40;2.03;;;-6.80;99.90;;;;;;5096817;28;19920;-61
2021/11/30 06:06:53;;;;;;;5.70;2.17;;;-6.70;99.90;;;;;;5094476;28;20024;-61
2021/11/30 06:09:19;;;;;;;2.92;2.20;;;-6.50;99.90;;;;;;5113216;28;20030;-63
2021/11/30 06:11:45;;;;;;;2.70;2.03;;;-6.40;99.90;;;;;;5106924;28;20024;-62
2021/11/30 06:14:11;;;;;;;3.60;2.58;;;-6.20;99.90;;;;;;5093257;27;20046;-62
2021/11/30 06:16:37;;;;;;;3.58;2.63;;;-6.00;99.90;;;;;;5104216;28;20375;-62
2021/11/30 06:19:03;;;;;;;10.73;3.25;;;-5.70;99.90;;;;;;5112514;28;20016;-62
2021/11/30 06:21:29;;;;;;;6.00;3.25;;;-5.50;99.90;;;;;;5112962;28;20080;-63
2021/11/30 06:23:55;;;;;;;3.08;2.30;;;-5.50;99.90;;;;;;5112712;28;20413;-63
2021/11/30 06:26:20;;;;;;;3.33;1.95;;;-5.50;99.90;;;;;;5104035;28;20020;-62
2021/11/30 06:28:46;;;;;;;3.65;1.88;;;-5.50;99.90;;;;;;5112228;28;20023;-62
2021/11/30 06:31:12;;;;;;;2.00;1.70;;;-5.50;99.90;;;;;;5112467;28;20079;-62
2021/11/30 06:33:38;;;;;;;7.25;2.33;;;-5.40;99.90;;;;;;5112421;28;20024;-62
2021/11/30 06:36:04;;;;;;;2.53;2.17;;;-5.40;99.90;;;;;;5112497;28;20486;-61
2021/11/30 06:38:30;;;;;;;2.35;1.90;;;-5.40;99.90;;;;;;5112529;28;20027;-61
2021/11/30 06:40:56;;;;;;;1.98;1.70;;;-5.30;99.90;;;;;;5112351;28;20023;-61
2021/11/30 06:43:21;;;;;;;1.80;1.70;;;-5.20;99.90;;;;;;5111900;28;20479;-61
2021/11/30 06:45:47;;;;;;;1.83;1.50;;;-5.10;99.90;;;;;;5112199;28;20459;-61
2021/11/30 06:48:13;;;;;;;1.70;1.58;;;-5.10;99.90;;;;;;5112314;28;20019;-61
2021/11/30 06:50:39;;;;;;;1.50;1.40;;;-5.10;99.90;;;;;;5111943;28;20099;-61
2021/11/30 06:53:05;;;;;;;2.28;2.03;;;-5.00;99.90;;;;;;5112224;28;20114;-60
2021/11/30 06:55:31;;;;;;;2.15;1.75;;;-4.50;99.90;;;;;;5112022;28;20032;-62
2021/11/30 06:57:57;;;;;;;2.50;1.90;;;-4.60;99.90;;;;;;5111511;28;20040;-63
2021/11/30 07:00:25;;;;;;;5.95;2.22;;;-4.60;99.90;;;;;;5108487;27;20057;-63
2021/11/30 07:02:51;;;;;;;4.47;2.70;;;-4.70;99.90;;;;;;5096865;28;20058;-63
2021/11/30 07:05:20;;;;;;;2.10;1.90;;;-4.70;99.90;;;;;;5111541;28;20483;-64
2021/11/30 07:08:00;;;;;;;3.95;1.60;;;-4.70;99.90;;;;;;5111548;28;20019;-62
2021/11/30 07:10:39;;;;;;;1.60;1.47;;;-4.70;99.90;;;;;;5111392;28;20356;-63
2021/11/30 07:13:22;;;;;;;1.58;1.48;;;-4.70;99.90;;;;;;5110893;28;20055;-62
2021/11/30 07:15:51;;;;;;;1.48;1.33;;;-4.60;99.90;;;;;;5102917;28;20090;-61
2021/11/30 07:18:18;;;;;;;1.65;1.55;;;-4.60;99.90;;;;;;5093667;28;20024;-61
2021/11/30 07:20:44;;;;;;;2.00;1.80;;;-4.60;99.90;;;;;;5101974;28;20027;-64
2021/11/30 07:23:12;;;;;;;2.45;1.75;;;-4.50;99.90;;;;;;5090786;28;20032;-62
2021/11/30 07:25:38;;;;;;;2.45;1.35;;;-4.50;99.90;;;;;;5097383;28;20475;-62
2021/11/30 07:28:04;;;;;;;2.22;1.98;;;-4.50;99.90;;;;;;5108363;28;20046;-63
2021/11/30 07:30:30;;;;;;;2.17;1.63;;;-4.50;99.90;;;;;;5096539;28;20028;-63
2021/11/30 07:32:56;;;;;;;1.52;1.42;;;-4.50;99.90;;;;;;5111277;28;20092;-61
2021/11/30 07:35:23;;;;;;;2.15;1.27;;;-4.40;99.90;;;;;;5097260;28;20474;-62
2021/11/30 07:37:50;;;;;;;1.40;1.30;;;-4.40;99.90;;;;;;5111783;28;20094;-61
2021/11/30 07:40:16;;;;;;;2.08;1.40;;;-4.30;99.90;;;;;;5091306;28;20103;-63
2021/11/30 07:42:43;;;;;;;3.53;1.58;;;-4.30;99.90;;;;;;5094659;28;20025;-63
2021/11/30 07:45:10;;;;;;;1.42;1.33;;;-4.30;99.90;;;;;;5092243;28;20472;-63
2021/11/30 07:47:36;;;;;;;3.50;1.38;;;-4.30;99.90;;;;;;5101190;28;20020;-63
2021/11/30 07:50:04;;;;;;;1.90;1.60;;;-4.30;99.90;;;;;;5104309;28;20016;-63
2021/11/30 07:52:31;;;;;;;6.18;2.03;;;-4.40;99.90;;;;;;5110555;28;20392;-63
2021/11/30 07:55:03;;;;;;;3.20;2.17;;;-4.60;99.90;;;;;;5107556;28;20028;-65
2021/11/30 07:57:29;;;;;;;2.28;2.08;;;-4.80;99.90;;;;;;5097240;28;20108;-63
2021/11/30 07:59:55;;;;;;;3.08;2.13;;;-4.90;99.90;;;;;;5094993;28;20122;-63
2021/11/30 08:02:21;;;;;;;2.90;2.47;;;-5.00;99.90;;;;;;5112041;28;20115;-62
2021/11/30 08:04:49;;;;;;;4.35;2.03;;;-5.10;99.90;;;;;;5114572;28;20107;-63
2021/11/30 08:07:16;;;;;;;4.68;2.08;;;-5.20;99.90;;;;;;5105396;28;20044;-63
2021/11/30 08:09:43;;;;;;;6.50;2.45;;;-5.20;99.90;;;;;;5114587;28;20031;-62
2021/11/30 08:12:09;;;;;;;3.78;2.63;;;-5.30;99.90;;;;;;5114643;28;20027;-63
2021/11/30 08:14:34;;;;;;;2.72;2.28;;;-5.40;99.90;;;;;;5104013;28;20129;-61
2021/11/30 08:17:00;;;;;;;2.10;1.85;;;-5.50;99.90;;;;;;5109843;28;20108;-61
2021/11/30 08:19:27;;;;;;;5.28;2.40;;;-5.50;99.90;;;;;;5114483;28;20034;-62
2021/11/30 08:21:54;;;;;;;6.85;2.55;;;-5.60;99.90;;;;;;5114266;28;20019;-62
2021/11/30 08:24:20;;;;;;;4.88;2.30;;;-5.70;99.90;;;;;;5106051;28;20066;-66
2021/11/30 08:26:46;;;;;;;3.28;2.17;;;-5.70;99.90;;;;;;5112809;28;20390;-65
2021/11/30 08:29:12;;;;;;;3.75;2.13;;;-5.80;99.90;;;;;;5095973;28;20024;-65
2021/11/30 08:31:38;;;;;;;4.05;2.13;;;-5.90;99.90;;;;;;5114521;28;20019;-65
2021/11/30 08:34:04;;;;;;;3.97;2.10;;;-6.00;99.90;;;;;;5114332;28;20031;-65
2021/11/30 08:36:30;;;;;;;5.35;2.80;;;-6.00;99.90;;;;;;5114530;28;20022;-65
2021/11/30 08:38:56;;;;;;;6.20;2.17;;;-6.00;99.90;;;;;;5114036;28;20030;-65
2021/11/30 08:41:24;;;;;;;4.22;2.13;;;-6.00;99.90;;;;;;5114493;28;20024;-65
2021/11/30 08:43:50;;;;;;;3.25;2.20;;;-6.00;99.90;;;;;;5112926;28;20451;-65
2021/11/30 08:46:15;;;;;;;2.85;2.40;;;-6.10;99.90;;;;;;5114298;28;20050;-65
2021/11/30 08:48:41;;;;;;;2.83;1.67;;;-6.10;99.90;;;;;;5114398;28;20055;-65
2021/11/30 08:51:07;;;;;;;5.85;2.38;;;-6.10;99.90;;;;;;5114545;28;20046;-65
2021/11/30 08:53:36;;;;;;;6.38;2.88;;;-6.10;99.90;;;;;;5101981;28;20535;-65
2021/11/30 08:56:03;;;;;;;4.93;2.22;;;-6.20;99.90;;;;;;5106724;28;20054;-65
2021/11/30 08:58:29;;;;;;;4.85;1.98;;;-6.20;99.90;;;;;;5109606;28;20070;-65
2021/11/30 09:00:55;;;;;;;4.13;3.00;;;-6.20;99.90;;;;;;5101970;28;20036;-64
2021/11/30 09:03:21;;;;;;;3.50;2.22;;;-6.20;99.90;;;;;;5094385;28;20134;-64
2021/11/30 09:05:47;;;;;;;6.82;2.47;;;-6.20;99.90;;;;;;5108479;28;20375;-64
2021/11/30 09:08:13;;;;;;;2.42;2.22;;;-6.20;99.90;;;;;;5097476;28;20031;-64
2021/11/30 09:10:40;;;;;;;2.63;2.05;;;-6.20;99.90;;;;;;5112098;28;20028;-64
2021/11/30 09:13:07;;;;;;;3.50;2.33;;;-6.20;99.90;;;;;;5113730;28;20023;-64
2021/11/30 09:15:33;;;;;;;3.30;2.40;;;-6.30;99.90;;;;;;5106270;28;20024;-64
2021/11/30 09:17:59;;;;;;;4.43;2.72;;;-6.20;99.90;;;;;;5108494;28;20300;-63
2021/11/30 09:20:28;;;;;;;7.65;2.97;;;-6.20;99.90;;;;;;5102577;27;20364;-62
2021/11/30 09:22:54;;;;;;;5.82;2.53;;;-6.20;99.90;;;;;;5095078;28;20028;-62
2021/11/30 09:25:22;;;;;;;3.33;2.00;;;-6.20;99.90;;;;;;5103441;28;20090;-62
2021/11/30 09:27:48;;;;;;;4.45;2.22;;;-6.20;99.90;;;;;;5110288;28;20025;-62
2021/11/30 09:30:16;;;;;;;1.23;1.15;;;-6.20;99.90;;;;;;5113454;28;20024;-62
2021/11/30 09:32:42;;;;;;;4.80;2.92;;;-6.30;99.90;;;;;;5099678;28;20020;-62
2021/11/30 09:35:12;;;;;;;6.63;2.50;;;-6.30;99.90;;;;;;5110816;28;20024;-62
2021/11/30 09:37:39;;;;;;;3.92;2.35;;;-6.20;99.90;;;;;;5107874;28;20028;-62
2021/11/30 09:40:11;;;;;;;3.80;2.22;;;-6.10;99.90;;;;;;5113387;28;20395;-62
2021/11/30 09:42:37;;;;;;;4.97;2.72;;;-6.20;99.90;;;;;;5113254;28;20037;-63
2021/11/30 09:45:05;;;;;;;3.50;2.38;;;-6.20;99.90;;;;;;5113042;28;20070;-61
2021/11/30 09:47:33;;;;;;;4.72;2.50;;;-6.20;99.90;;;;;;5111729;28;20027;-62
2021/11/30 09:49:59;;;;;;;5.07;2.60;;;-6.00;99.90;;;;;;5106254;28;20055;-62
2021/11/30 09:52:25;;;;;;;4.57;2.58;;;-6.10;99.90;;;;;;5113145;28;20051;-61
2021/11/30 09:54:51;;;;;;;2.60;2.10;;;-6.20;99.90;;;;;;5106113;28;20103;-61
2021/11/30 09:57:17;;;;;;;2.72;2.20;;;-6.20;99.90;;;;;;5094101;28;20023;-61
2021/11/30 09:59:47;;;;;;;2.72;1.98;;;-6.30;99.90;;;;;;5101470;28;20047;-61
2021/11/30 10:02:13;;;;;;;4.68;2.80;;;-6.40;99.90;;;;;;5096096;28;20024;-61
2021/11/30 10:04:40;;;;;;;2.33;2.05;;;-6.50;99.90;;;;;;5098799;28;20513;-62
2021/11/30 10:07:07;;;;;;;5.88;2.38;;;-6.50;99.90;;;;;;5106874;28;20047;-65
2021/11/30 10:09:33;;;;;;;4.22;2.83;;;-6.40;99.90;;;;;;5112422;28;20023;-61
2021/11/30 10:12:02;;;;;;;5.03;2.38;;;-6.50;99.90;;;;;;5111328;28;20032;-61
2021/11/30 10:14:42;;;;;;;2.63;2.13;;;-6.50;99.90;;;;;;5102476;28;20152;-61
2021/11/30 10:17:11;;;;;;;3.67;2.38;;;-6.50;99.90;;;;;;5092608;28;20058;-62
2021/11/30 10:19:39;;;;;;;3.75;2.20;;;-6.50;99.90;;;;;;5098156;28;20498;-61
2021/11/30 10:22:05;;;;;;;5.35;2.38;;;-6.60;99.90;;;;;;5093369;28;20069;-62
2021/11/30 10:24:31;;;;;;;3.58;2.10;;;-6.70;99.90;;;;;;5104903;28;20039;-62
2021/11/30 10:26:58;;;;;;;2.05;1.85;;;-6.70;99.90;;;;;;5108637;28;20024;-61
2021/11/30 10:29:25;;;;;;;4.82;2.38;;;-6.70;99.90;;;;;;5112342;28;20023;-61
2021/11/30 10:31:54;;;;;;;2.15;1.48;;;-6.70;99.90;;;;;;5112156;28;20024;-61
2021/11/30 10:34:29;;;;;;;3.30;2.13;;;-6.70;99.90;;;;;;5111103;28;20597;-62
2021/11/30 10:36:57;;;;;;;3.83;2.10;;;-6.70;99.90;;;;;;5110325;28;20027;-61
2021/11/30 10:39:32;;;;;;;3.03;2.40;;;-6.80;99.90;;;;;;5106223;28;20020;-61
2021/11/30 10:42:19;;;;;;;2.40;2.20;;;-6.90;99.90;;;;;;5107476;28;20024;-61
2021/11/30 10:44:48;;;;;;;2.33;1.70;;;-6.90;99.90;;;;;;5111934;28;20039;-61
2021/11/30 10:47:39;;;;;;;1.92;1.75;;;-7.00;99.90;;;;;;5098765;28;20019;-61
2021/11/30 10:50:11;;;;;;;2.00;1.42;;;-7.00;99.90;;;;;;5109683;28;20122;-61
2021/11/30 10:52:42;;;;;;;2.88;2.17;;;-7.20;99.90;;;;;;5112438;28;20109;-61
2021/11/30 10:55:07;;;;;;;;;;;-7.20;99.90;;;;;;5112838;28;20024;-61
2021/11/30 10:57:35;;;;;;;5.50;2.08;;;-7.10;99.90;;;;;;5111676;28;19903;-62
2021/11/30 11:00:16;;;;;;;2.17;1.60;;;-7.30;99.90;;;;;;5111816;28;20078;-61
2021/11/30 11:03:12;;;;;;;1.92;1.83;;;-7.50;99.90;;;;;;5112172;28;20380;-61
2021/11/30 11:05:41;;;;;;;3.70;2.10;;;-7.70;99.90;;;;;;5097348;28;20582;-61
2021/11/30 11:08:10;;;;;;;2.58;2.05;;;-7.80;99.90;;;;;;5112250;28;20114;-63
2021/11/30 11:10:38;;;;;;;1.55;1.42;;;-7.90;99.90;;;;;;5112232;28;20098;-61
2021/11/30 11:13:19;;;;;;;3.35;1.98;;;-8.00;99.90;;;;;;5112123;28;20031;-61
2021/11/30 11:15:45;;;;;;;3.28;2.22;;;-8.20;99.90;;;;;;5111904;28;20020;-61
2021/11/30 11:18:23;;;;;;;2.47;1.67;;;-8.30;99.90;;;;;;5105194;28;20391;-62
2021/11/30 11:20:51;;;;;;;4.47;1.83;;;-8.40;99.90;;;;;;5106010;28;20016;-62
2021/11/30 11:23:25;;;;;;;2.33;1.60;;;-8.50;99.90;;;;;;5108523;28;20027;-62
2021/11/30 11:25:54;;;;;;;1.63;1.50;;;-8.60;99.90;;;;;;5104052;28;20501;-61
2021/11/30 11:28:23;;;;;;;5.57;1.90;;;-8.60;99.90;;;;;;5111811;28;20082;-61
2021/11/30 11:30:51;;;;;;;2.90;2.30;;;-8.70;99.90;;;;;;5111440;28;20020;-61
2021/11/30 11:33:17;;;;;;;4.63;2.25;;;-8.80;99.90;;;;;;5111393;28;20352;-61
2021/11/30 11:35:43;;;;;;;2.50;2.30;;;-8.80;99.90;;;;;;5097229;28;20560;-61
2021/11/30 11:38:10;;;;;;;3.08;2.08;;;-8.60;99.90;;;;;;5111009;28;20351;-61
2021/11/30 11:40:36;;;;;;;1.23;1.23;;;-8.60;99.90;;;;;;5111411;28;20076;-61
2021/11/30 11:43:02;;;;;;;1.35;1.30;;;-8.80;99.90;;;;;;5111535;28;20016;-61
2021/11/30 11:45:28;;;;;;;2.40;1.40;;;-8.80;99.90;;;;;;5111563;28;20027;-61
2021/11/30 11:48:03;;;;;;;2.50;2.17;;;-8.90;99.90;;;;;;5111564;28;20047;-61
2021/11/30 11:50:48;;;;;;;4.53;1.88;;;-9.00;99.90;;;;;;5111443;28;20024;-61
2021/11/30 11:53:24;;;;;;;2.78;1.60;;;-9.10;99.90;;;;;;5099305;28;20020;-61
2021/11/30 11:56:16;;;;;;;3.53;1.92;;;-9.10;99.90;;;;;;5110640;28;20043;-61
2021/11/30 11:58:45;;;;;;;1.67;1.58;;;-9.20;99.90;;;;;;5109027;28;20161;-61
2021/11/30 12:01:17;;;;;;;2.03;1.80;;;-9.20;99.90;;;;;;5103727;28;20031;-61
2021/11/30 12:04:08;;;;;;;1.67;1.58;;;-9.20;99.90;;;;;;5105523;28;20036;-61
2021/11/30 12:06:47;;;;;;;1.05;1.02;;;-9.30;99.90;;;;;;5111412;28;20027;-63
2021/11/30 12:09:24;;;;;;;2.78;2.00;;;-9.30;99.90;;;;;;5107782;28;20027;-63
2021/11/30 12:11:59;;;;;;;2.97;1.60;;;-9.30;99.90;;;;;;5102233;28;20604;-63
2021/11/30 12:14:34;;;;;;;5.85;2.30;;;-9.30;99.90;;;;;;5111437;28;20104;-63
2021/11/30 12:17:35;;;;;;;9.50;3.40;;;-9.40;99.90;;;;;;5111415;28;20475;-63
2021/11/30 12:20:02;;;;;;;10.68;4.78;;;-9.50;99.90;;;;;;5036775;28;20029;-63
2021/11/30 12:22:50;;;;;;;9.02;3.45;;;-9.50;99.90;;;;;;5096922;28;20483;-63
2021/11/30 12:25:36;;;;;;;3.85;2.13;;;-9.40;99.90;;;;;;5100583;28;20071;-63
2021/11/30 12:28:04;;;;;;;2.45;1.88;;;-9.40;99.90;;;;;;5111101;28;20086;-63
2021/11/30 12:30:49;;;;;;;1.83;1.70;;;-9.40;99.90;;;;;;5111183;28;20028;-63
2021/11/30 12:33:32;;;;;;;2.20;1.95;;;-9.40;99.90;;;;;;5113796;28;20027;-61
2021/11/30 12:36:11;;;;;;;1.27;1.25;;;-9.40;99.90;;;;;;5114749;28;20022;-60
2021/11/30 12:38:40;;;;;;;1.88;1.70;;;-9.40;99.90;;;;;;5094497;28;20082;-61
2021/11/30 12:41:36;;;;;;;1.27;1.20;;;-9.50;99.90;;;;;;5108671;28;20410;-61
2021/11/30 12:44:17;;;;;;;1.85;1.73;;;-9.50;99.90;;;;;;5104316;28;20494;-61
2021/11/30 12:46:48;;;;;;;1.70;1.60;;;-9.40;99.90;;;;;;5114459;28;20023;-60
2021/11/30 12:49:27;;;;;;;1.33;1.23;;;-9.40;99.90;;;;;;5114463;28;20023;-61
2021/11/30 12:52:25;;;;;;;1.70;1.60;;;-9.40;99.90;;;;;;5114149;28;20047;-61
2021/11/30 12:55:13;;;;;;;1.70;1.60;;;-9.50;99.90;;;;;;5114153;28;20269;-63
2021/11/30 12:57:42;;;;;;;1.08;1.08;;;-9.50;99.90;;;;;;5100293;28;20047;-63
2021/11/30 13:00:10;;;;;;;1.83;1.73;;;-9.50;99.90;;;;;;5114314;28;20034;-63
2021/11/30 13:02:45;;;;;;;2.13;1.85;;;-9.60;99.90;;;;;;5099786;28;20460;-63
2021/11/30 13:05:11;;;;;;;2.17;1.90;;;-9.50;99.90;;;;;;5113982;28;20606;-63
2021/11/30 13:07:57;;;;;;;4.63;2.38;;;-9.00;99.90;;;;;;5112773;28;20024;-61
2021/11/30 13:10:24;;;;;;;1.58;1.30;;;-8.40;99.90;;;;;;5113733;28;20023;-61
2021/11/30 13:12:53;;;;;;;3.40;1.80;;;-8.50;99.90;;;;;;5113333;28;20020;-62
2021/11/30 13:15:22;;;;;;;2.45;1.83;;;-8.40;99.90;;;;;;5101643;28;20028;-62
2021/11/30 13:17:48;;;;;;;1.95;1.48;;;-8.60;99.90;;;;;;5112579;28;20379;-61
2021/11/30 13:20:17;;;;;;;2.03;1.70;;;-8.70;99.90;;;;;;5113679;28;20049;-61
2021/11/30 13:22:46;;;;;;;2.00;1.77;;;-8.50;99.90;;;;;;5113463;28;20024;-63
2021/11/30 13:25:15;;;;;;;2.25;1.60;;;-8.70;99.90;;;;;;5113279;28;20042;-63
2021/11/30 13:27:53;;;;;;;2.00;1.80;;;-8.80;99.90;;;;;;5113796;28;20356;-62